Time;durP1;ratioP1;P1;durP2;ratioP2;P2;SDS_P1;SDS_P2;PMS_P1;PMS_P2;Temp;Humidity;BMP_temperature;BMP_pressure;BME280_temperature;BME280_humidity;BME280_pressure;Samples;Min_cycle;Max_cycle;Signal;HPM_P1;HPM_P2
2023/11/11 00:02:02;;;;;;;1.10;0.43;;;10.70;99.90;;;;;;5081977;28;20201;-57
2023/11/11 00:04:29;;;;;;;1.10;0.47;;;10.70;99.90;;;;;;5082460;28;20196;-56
2023/11/11 00:06:55;;;;;;;1.10;0.50;;;10.70;99.90;;;;;;5080345;28;20208;-55
2023/11/11 00:09:23;;;;;;;1.60;0.37;;;10.60;99.90;;;;;;5078848;28;20221;-55
2023/11/11 00:11:51;;;;;;;0.90;0.40;;;10.60;99.90;;;;;;5080395;28;20697;-56
2023/11/11 00:14:18;;;;;;;2.00;0.40;;;10.60;99.90;;;;;;5082459;28;20633;-56
2023/11/11 00:16:45;;;;;;;2.07;0.47;;;10.60;99.90;;;;;;5081784;28;20206;-55
2023/11/11 00:19:13;;;;;;;1.93;0.40;;;10.60;99.90;;;;;;5078718;28;20201;-55
2023/11/11 00:21:42;;;;;;;0.50;0.40;;;10.50;99.90;;;;;;5078790;28;20233;-55
2023/11/11 00:24:10;;;;;;;0.77;0.40;;;10.40;99.90;;;;;;5070717;28;20244;-54
2023/11/11 00:26:38;;;;;;;2.10;1.60;;;10.40;99.90;;;;;;5079179;28;20578;-56
2023/11/11 00:29:06;;;;;;;1.53;0.60;;;10.30;99.90;;;;;;5086077;28;20223;-55
2023/11/11 00:31:33;;;;;;;1.23;0.40;;;10.30;99.90;;;;;;5087254;28;20721;-56
2023/11/11 00:34:01;;;;;;;0.40;0.33;;;10.30;99.90;;;;;;5083672;28;20655;-56
2023/11/11 00:36:28;;;;;;;1.87;0.40;;;10.30;99.90;;;;;;5083062;28;20287;-56
2023/11/11 00:38:55;;;;;;;1.20;0.60;;;10.30;99.90;;;;;;5084812;28;20230;-55
2023/11/11 00:41:22;;;;;;;1.07;0.50;;;10.30;99.90;;;;;;5086337;28;20333;-56
2023/11/11 00:43:50;;;;;;;0.23;0.20;;;10.30;99.90;;;;;;5084924;28;20215;-56
2023/11/11 00:46:17;;;;;;;1.33;0.40;;;10.30;99.90;;;;;;5082964;28;20205;-57
2023/11/11 00:48:44;;;;;;;0.57;0.30;;;10.30;99.90;;;;;;5083003;28;20641;-56
2023/11/11 00:51:11;;;;;;;0.20;0.20;;;10.40;99.90;;;;;;5086506;28;20231;-56
2023/11/11 00:53:37;;;;;;;0.70;0.37;;;10.40;99.90;;;;;;5086472;28;20646;-56
2023/11/11 00:56:04;;;;;;;0.67;0.23;;;10.30;99.90;;;;;;5083114;28;20205;-56
2023/11/11 00:58:31;;;;;;;0.50;0.30;;;10.30;99.90;;;;;;5082879;28;20686;-56
2023/11/11 01:01:00;;;;;;;1.70;0.50;;;10.30;99.90;;;;;;5085044;28;20312;-56
2023/11/11 01:03:26;;;;;;;1.30;0.23;;;10.30;99.90;;;;;;5085981;28;20216;-57
2023/11/11 01:05:53;;;;;;;1.03;0.40;;;10.30;99.90;;;;;;5084606;28;20220;-56
2023/11/11 01:08:20;;;;;;;0.80;0.30;;;10.30;99.90;;;;;;5082680;28;20221;-56
2023/11/11 01:10:47;;;;;;;1.67;1.17;;;10.20;99.90;;;;;;5084922;28;20233;-56
2023/11/11 01:13:15;;;;;;;4.70;2.70;;;10.20;99.90;;;;;;5085865;28;20565;-55
2023/11/11 01:15:42;;;;;;;1.10;1.00;;;10.30;99.90;;;;;;5085629;28;20291;-55
2023/11/11 01:18:10;;;;;;;0.30;0.30;;;10.40;99.90;;;;;;5074048;28;20220;-55
2023/11/11 01:20:38;;;;;;;0.93;0.60;;;10.30;99.90;;;;;;5081633;28;20537;-56
2023/11/11 01:23:05;;;;;;;1.43;0.50;;;10.30;99.90;;;;;;5084975;28;20204;-55
2023/11/11 01:25:32;;;;;;;0.40;0.30;;;10.20;99.90;;;;;;5085378;28;20210;-55
2023/11/11 01:27:59;;;;;;;0.80;0.37;;;10.20;99.90;;;;;;5082963;28;20228;-55
2023/11/11 01:30:25;;;;;;;0.70;0.50;;;10.20;99.90;;;;;;5081543;28;20334;-55
2023/11/11 01:32:52;;;;;;;0.53;0.33;;;10.20;99.90;;;;;;5082720;28;20251;-55
2023/11/11 01:35:20;;;;;;;0.43;0.30;;;10.50;99.90;;;;;;5085352;28;20200;-56
2023/11/11 01:37:47;;;;;;;1.13;0.60;;;10.20;99.90;;;;;;5084470;28;20681;-56
2023/11/11 01:40:14;;;;;;;0.37;0.27;;;10.20;99.90;;;;;;5080855;28;20232;-55
2023/11/11 01:42:41;;;;;;;0.40;0.20;;;10.20;99.90;;;;;;5081838;28;20205;-55
2023/11/11 01:45:08;;;;;;;1.03;0.30;;;10.10;99.90;;;;;;5085634;28;20665;-56
2023/11/11 01:47:36;;;;;;;2.13;0.30;;;10.10;99.90;;;;;;5086170;28;20204;-55
2023/11/11 01:50:03;;;;;;;0.50;0.30;;;10.10;99.90;;;;;;5083671;28;20274;-56
2023/11/11 01:52:32;;;;;;;0.53;0.30;;;10.10;99.90;;;;;;5081897;28;20234;-56
2023/11/11 01:55:01;;;;;;;0.50;0.20;;;10.00;99.90;;;;;;5083637;28;20262;-55
2023/11/11 01:57:29;;;;;;;1.00;0.40;;;10.10;99.90;;;;;;5085328;28;20200;-56
2023/11/11 01:59:58;;;;;;;0.00;0.00;;;10.10;99.90;;;;;;5082762;28;20216;-56
2023/11/11 02:02:24;;;;;;;0.30;0.20;;;10.20;99.90;;;;;;5081518;28;20337;-56
2023/11/11 02:04:51;;;;;;;0.60;0.30;;;10.20;99.90;;;;;;5082392;28;20200;-55
2023/11/11 02:07:18;;;;;;;0.10;0.10;;;10.20;99.90;;;;;;5084920;28;20196;-56
2023/11/11 02:09:47;;;;;;;2.67;0.37;;;10.20;99.90;;;;;;5084651;28;20224;-55
2023/11/11 02:12:14;;;;;;;0.20;0.20;;;10.20;99.90;;;;;;5081015;28;20205;-56
2023/11/11 02:14:41;;;;;;;0.30;0.20;;;10.20;99.90;;;;;;5081288;28;20201;-56
2023/11/11 02:17:08;;;;;;;1.27;1.17;;;10.20;99.90;;;;;;5084314;28;20201;-55
2023/11/11 02:19:34;;;;;;;3.73;3.13;;;10.10;99.90;;;;;;5084103;28;20220;-55
2023/11/11 02:22:01;;;;;;;1.00;0.30;;;10.20;99.90;;;;;;5081945;28;20329;-55
2023/11/11 02:24:31;;;;;;;0.77;0.30;;;10.10;99.90;;;;;;5080779;28;20204;-55
2023/11/11 02:26:58;;;;;;;1.33;0.30;;;10.10;99.90;;;;;;5082584;28;20562;-54
2023/11/11 02:29:26;;;;;;;0.17;0.10;;;10.10;99.90;;;;;;5083963;28;20310;-54
2023/11/11 02:31:53;;;;;;;0.30;0.20;;;10.10;99.90;;;;;;5082932;28;20204;-55
2023/11/11 02:34:19;;;;;;;0.40;0.20;;;10.00;99.90;;;;;;5080549;28;20209;-54
2023/11/11 02:36:46;;;;;;;0.40;0.23;;;9.90;99.90;;;;;;5080754;28;20209;-56
2023/11/11 02:39:13;;;;;;;0.47;0.30;;;9.80;99.90;;;;;;5080545;28;20688;-56
2023/11/11 02:41:41;;;;;;;1.47;0.20;;;9.80;99.90;;;;;;5080441;28;20742;-55
2023/11/11 02:44:08;;;;;;;1.73;0.20;;;9.80;99.90;;;;;;5083477;28;20281;-56
2023/11/11 02:46:35;;;;;;;0.13;0.13;;;9.70;99.90;;;;;;5084290;28;20207;-56
2023/11/11 02:49:04;;;;;;;0.37;0.10;;;9.60;99.90;;;;;;5081116;28;20220;-56
2023/11/11 02:51:30;;;;;;;0.30;0.30;;;9.60;99.90;;;;;;5080253;28;20224;-58
2023/11/11 02:53:57;;;;;;;0.73;0.23;;;9.50;99.90;;;;;;5081722;28;20209;-56
2023/11/11 02:56:24;;;;;;;1.00;0.17;;;9.50;99.90;;;;;;5083835;28;20657;-55
2023/11/11 02:58:52;;;;;;;0.33;0.30;;;9.50;99.90;;;;;;5082931;28;20214;-55
2023/11/11 03:01:20;;;;;;;0.30;0.20;;;9.50;99.90;;;;;;5080277;28;20354;-56
2023/11/11 03:03:48;;;;;;;1.70;0.10;;;9.30;99.90;;;;;;5080108;28;20201;-57
2023/11/11 03:06:18;;;;;;;0.53;0.20;;;9.20;99.90;;;;;;5083558;28;20209;-56
2023/11/11 03:08:44;;;;;;;1.40;0.30;;;9.20;99.90;;;;;;5083320;28;20752;-56
2023/11/11 03:11:13;;;;;;;0.50;0.33;;;9.20;99.90;;;;;;5071843;28;20225;-54
2023/11/11 03:13:39;;;;;;;0.40;0.20;;;9.20;99.90;;;;;;5079926;28;20223;-55
2023/11/11 03:16:08;;;;;;;1.50;0.20;;;9.20;99.90;;;;;;5082721;28;20204;-54
2023/11/11 03:18:34;;;;;;;0.63;0.20;;;9.20;99.90;;;;;;5083246;28;20204;-54
2023/11/11 03:21:01;;;;;;;0.40;0.20;;;9.20;99.90;;;;;;5080933;28;20219;-55
2023/11/11 03:23:27;;;;;;;1.93;0.30;;;9.30;99.90;;;;;;5079899;28;20200;-55
2023/11/11 03:25:54;;;;;;;2.33;0.30;;;9.30;99.90;;;;;;5080980;28;20213;-55
2023/11/11 03:28:21;;;;;;;0.73;0.33;;;9.40;99.90;;;;;;5083060;28;20200;-55
2023/11/11 03:30:49;;;;;;;1.17;0.40;;;9.50;99.90;;;;;;5082710;28;20243;-55
2023/11/11 03:33:17;;;;;;;0.70;0.30;;;9.50;99.90;;;;;;5079815;28;20666;-56
2023/11/11 03:35:44;;;;;;;0.40;0.20;;;9.50;99.90;;;;;;5079737;28;20197;-55
2023/11/11 03:38:10;;;;;;;0.47;0.20;;;9.60;99.90;;;;;;5083144;28;20204;-55
2023/11/11 03:40:37;;;;;;;0.53;0.30;;;9.50;99.90;;;;;;5083180;28;20708;-55
2023/11/11 03:43:04;;;;;;;1.90;0.60;;;9.50;99.90;;;;;;5080032;28;20207;-55
2023/11/11 03:45:30;;;;;;;2.83;0.50;;;9.40;99.90;;;;;;5079531;28;20212;-55
2023/11/11 03:47:57;;;;;;;1.10;0.50;;;9.30;99.90;;;;;;5080778;28;20213;-55
2023/11/11 03:50:25;;;;;;;1.53;0.47;;;9.30;99.90;;;;;;5082492;28;20244;-56
2023/11/11 03:52:52;;;;;;;1.77;0.60;;;9.40;99.90;;;;;;5081924;28;20242;-56
2023/11/11 03:55:18;;;;;;;1.67;0.40;;;9.40;99.90;;;;;;5079606;28;20255;-55
2023/11/11 03:57:45;;;;;;;0.70;0.50;;;9.50;99.90;;;;;;5079551;28;20235;-55
2023/11/11 04:00:17;;;;;;;1.53;0.60;;;9.50;99.90;;;;;;5079161;28;20257;-56
2023/11/11 04:02:43;;;;;;;2.73;0.60;;;9.40;99.90;;;;;;5078564;28;20205;-55
2023/11/11 04:05:11;;;;;;;0.60;0.60;;;9.30;99.90;;;;;;5082564;28;20203;-56
2023/11/11 04:07:39;;;;;;;0.63;0.50;;;9.30;99.90;;;;;;5082923;28;20208;-55
2023/11/11 04:10:07;;;;;;;1.13;0.60;;;9.30;99.90;;;;;;5079927;28;20233;-55
2023/11/11 04:12:34;;;;;;;1.60;0.53;;;9.30;99.90;;;;;;5079151;28;20197;-54
2023/11/11 04:15:01;;;;;;;1.90;0.90;;;9.30;99.90;;;;;;5081079;28;20205;-55
2023/11/11 04:17:28;;;;;;;1.70;0.80;;;9.30;99.90;;;;;;5082588;28;20674;-55
2023/11/11 04:19:54;;;;;;;1.00;0.70;;;9.40;99.90;;;;;;5103290;22;20290;-61
2023/11/11 04:22:21;;;;;;;1.83;0.70;;;9.40;99.90;;;;;;5082957;28;20270;-62
2023/11/11 04:24:50;;;;;;;1.20;0.90;;;9.40;99.90;;;;;;5082685;28;20197;-62
2023/11/11 04:27:17;;;;;;;2.20;0.70;;;9.30;99.90;;;;;;5079463;28;20205;-62
2023/11/11 04:29:43;;;;;;;1.60;1.10;;;9.20;99.90;;;;;;5079122;28;20705;-62
2023/11/11 04:32:10;;;;;;;1.73;0.60;;;9.30;99.90;;;;;;5070747;28;20584;-62
2023/11/11 04:34:37;;;;;;;1.37;0.80;;;9.30;99.90;;;;;;5070830;28;20197;-62
2023/11/11 04:37:03;;;;;;;1.47;0.80;;;9.40;99.90;;;;;;5070986;28;20212;-62
2023/11/11 04:39:30;;;;;;;0.87;0.70;;;9.50;99.90;;;;;;5070502;28;20197;-62
2023/11/11 04:41:59;;;;;;;1.10;0.77;;;9.50;99.90;;;;;;5070554;28;20201;-62
2023/11/11 04:44:26;;;;;;;1.33;0.80;;;9.50;99.90;;;;;;5070488;28;20205;-61
2023/11/11 04:46:53;;;;;;;1.10;0.77;;;9.50;99.90;;;;;;5070831;28;20215;-61
2023/11/11 04:49:19;;;;;;;2.90;1.20;;;9.50;99.90;;;;;;5070368;28;20223;-62
2023/11/11 04:51:46;;;;;;;1.60;1.00;;;9.50;99.90;;;;;;5070588;28;20232;-61
2023/11/11 04:54:13;;;;;;;1.00;0.80;;;9.60;99.90;;;;;;5070473;28;20220;-61
2023/11/11 04:56:39;;;;;;;2.57;0.70;;;9.70;99.90;;;;;;5070683;28;20205;-62
2023/11/11 04:59:08;;;;;;;1.67;0.80;;;9.70;99.90;;;;;;5070343;28;20254;-62
2023/11/11 05:01:35;;;;;;;2.37;1.10;;;9.70;99.90;;;;;;5070553;28;20225;-61
2023/11/11 05:04:03;;;;;;;0.70;0.70;;;9.60;99.90;;;;;;5070354;28;20213;-62
2023/11/11 05:06:30;;;;;;;2.17;0.90;;;9.60;99.90;;;;;;5070595;28;20204;-62
2023/11/11 05:08:57;;;;;;;1.83;0.87;;;9.50;99.90;;;;;;5070441;28;20205;-61
2023/11/11 05:11:24;;;;;;;1.43;1.20;;;9.50;99.90;;;;;;5070357;28;20314;-62
2023/11/11 05:13:50;;;;;;;1.40;1.10;;;9.60;99.90;;;;;;5070718;28;20205;-61
2023/11/11 05:16:29;;;;;;;1.10;0.70;;;9.60;99.90;;;;;;5074185;28;20428;-61
2023/11/11 05:18:56;;;;;;;2.27;0.87;;;9.60;99.90;;;;;;5074014;28;20295;-61
2023/11/11 05:21:22;;;;;;;1.00;0.90;;;9.60;99.90;;;;;;5073900;28;20236;-61
2023/11/11 05:23:49;;;;;;;3.00;1.20;;;9.60;99.90;;;;;;5073728;28;20708;-61
2023/11/11 05:26:16;;;;;;;1.27;0.80;;;9.50;99.90;;;;;;5057639;28;20681;-61
2023/11/11 05:28:42;;;;;;;2.13;0.90;;;9.40;99.90;;;;;;5073953;28;20595;-61
2023/11/11 05:31:10;;;;;;;1.43;0.83;;;9.40;99.90;;;;;;5073480;28;20231;-62
2023/11/11 05:33:38;;;;;;;1.93;1.00;;;9.30;99.90;;;;;;5073704;28;20236;-61
2023/11/11 05:36:08;;;;;;;3.10;1.40;;;9.20;99.90;;;;;;5073859;28;20239;-61
2023/11/11 05:38:35;;;;;;;1.93;1.30;;;9.20;99.90;;;;;;5073694;28;20205;-61
2023/11/11 05:41:01;;;;;;;2.53;1.30;;;9.10;99.90;;;;;;5073507;28;20229;-62
2023/11/11 05:43:28;;;;;;;4.57;1.30;;;9.10;99.90;;;;;;5073396;28;20201;-61
2023/11/11 05:45:55;;;;;;;2.07;1.30;;;9.10;99.90;;;;;;5073629;28;20683;-61
2023/11/11 05:48:21;;;;;;;2.70;1.50;;;9.10;99.90;;;;;;5073474;28;20200;-61
2023/11/11 05:50:49;;;;;;;1.80;1.10;;;9.00;99.90;;;;;;5073230;28;20220;-61
2023/11/11 05:53:17;;;;;;;3.70;1.17;;;9.10;99.90;;;;;;5056843;28;20287;-62
2023/11/11 05:55:44;;;;;;;1.20;1.00;;;9.20;99.90;;;;;;5073502;28;20254;-61
2023/11/11 05:58:11;;;;;;;1.97;1.13;;;9.30;99.90;;;;;;5073315;28;20216;-62
2023/11/11 06:00:39;;;;;;;2.47;1.40;;;9.30;99.90;;;;;;5073391;28;20217;-62
2023/11/11 06:03:06;;;;;;;2.10;1.23;;;9.30;99.90;;;;;;5072985;28;20212;-62
2023/11/11 06:05:34;;;;;;;3.93;1.27;;;9.30;99.90;;;;;;5072968;28;20685;-61
2023/11/11 06:08:02;;;;;;;1.77;1.20;;;9.10;99.90;;;;;;5073372;28;20227;-61
2023/11/11 06:10:29;;;;;;;1.83;1.10;;;9.40;99.90;;;;;;5072985;28;20221;-61
2023/11/11 06:12:57;;;;;;;2.77;1.40;;;9.40;99.90;;;;;;5073089;28;20205;-62
2023/11/11 06:15:24;;;;;;;2.37;1.10;;;9.40;99.90;;;;;;5073040;28;20201;-61
2023/11/11 06:17:51;;;;;;;1.90;1.13;;;9.40;99.90;;;;;;5072909;28;20579;-61
2023/11/11 06:20:19;;;;;;;1.70;1.30;;;9.40;99.90;;;;;;5072585;28;20221;-62
2023/11/11 06:22:47;;;;;;;1.37;1.20;;;9.40;99.90;;;;;;5072617;28;20684;-61
2023/11/11 06:25:15;;;;;;;2.67;1.40;;;9.50;99.90;;;;;;5072350;28;20240;-62
2023/11/11 06:27:44;;;;;;;3.07;1.37;;;9.50;99.90;;;;;;5072866;28;20201;-62
2023/11/11 06:30:11;;;;;;;1.60;1.30;;;9.60;99.90;;;;;;5072336;28;20696;-62
2023/11/11 06:32:38;;;;;;;2.00;1.10;;;9.70;99.90;;;;;;5072528;28;20204;-61
2023/11/11 06:35:07;;;;;;;2.23;1.20;;;9.70;99.90;;;;;;5072126;28;20208;-62
2023/11/11 06:37:35;;;;;;;2.13;1.50;;;9.70;99.90;;;;;;5072731;28;20301;-62
2023/11/11 06:40:03;;;;;;;3.33;1.30;;;9.70;99.90;;;;;;5072558;28;20225;-61
2023/11/11 06:42:31;;;;;;;1.80;1.23;;;9.70;99.90;;;;;;5072570;28;20201;-61
2023/11/11 06:44:57;;;;;;;2.77;1.60;;;9.70;99.90;;;;;;5072522;28;20205;-62
2023/11/11 06:47:24;;;;;;;1.37;1.27;;;9.80;99.90;;;;;;5072366;28;20201;-62
2023/11/11 06:49:51;;;;;;;2.33;1.30;;;9.80;99.90;;;;;;5072166;28;20221;-62
2023/11/11 06:52:17;;;;;;;2.77;1.30;;;9.80;99.90;;;;;;5056112;28;20202;-61
2023/11/11 06:54:44;;;;;;;1.80;1.33;;;9.80;99.90;;;;;;5072098;28;20200;-62
2023/11/11 06:57:11;;;;;;;2.70;1.50;;;9.90;99.90;;;;;;5071916;28;20232;-62
2023/11/11 06:59:39;;;;;;;2.93;1.70;;;9.90;99.90;;;;;;5071995;28;20204;-62
2023/11/11 07:02:07;;;;;;;4.77;2.10;;;9.80;99.90;;;;;;5071773;28;20697;-62
2023/11/11 07:04:34;;;;;;;3.20;1.80;;;9.80;99.90;;;;;;5071788;28;20211;-62
2023/11/11 07:07:01;;;;;;;2.30;1.50;;;9.80;99.90;;;;;;5071987;28;20666;-62
2023/11/11 07:09:28;;;;;;;2.67;1.70;;;9.90;99.90;;;;;;5071825;28;20239;-62
2023/11/11 07:11:55;;;;;;;3.13;1.70;;;9.90;99.90;;;;;;5071685;28;20288;-62
2023/11/11 07:14:21;;;;;;;3.30;1.90;;;10.00;99.90;;;;;;5071491;28;20201;-62
2023/11/11 07:16:49;;;;;;;3.13;1.50;;;10.00;99.90;;;;;;5071650;28;20201;-62
2023/11/11 07:19:16;;;;;;;1.73;1.50;;;10.00;99.90;;;;;;5071285;28;20718;-62
2023/11/11 07:21:43;;;;;;;3.23;1.70;;;10.00;99.90;;;;;;5071360;28;20318;-62
2023/11/11 07:24:10;;;;;;;3.03;1.60;;;10.00;99.90;;;;;;5071230;28;20262;-62
2023/11/11 07:26:38;;;;;;;4.60;2.40;;;10.00;99.90;;;;;;5071596;28;20228;-62
2023/11/11 07:29:04;;;;;;;3.63;2.03;;;10.00;99.90;;;;;;5071279;28;20300;-61
2023/11/11 07:31:32;;;;;;;1.83;1.40;;;10.00;99.90;;;;;;5071382;28;20228;-62
2023/11/11 07:34:00;;;;;;;3.67;1.50;;;10.00;99.90;;;;;;5071064;28;20296;-62
2023/11/11 07:36:28;;;;;;;2.30;1.60;;;10.00;99.90;;;;;;5070995;28;20645;-62
2023/11/11 07:38:56;;;;;;;3.00;1.60;;;10.00;99.90;;;;;;5071143;28;20627;-62
2023/11/11 07:41:24;;;;;;;2.37;1.40;;;10.00;99.90;;;;;;5071106;28;20312;-62
2023/11/11 07:43:51;;;;;;;3.43;1.30;;;10.00;99.90;;;;;;5071329;28;20224;-62
2023/11/11 07:46:19;;;;;;;1.40;1.30;;;10.00;99.90;;;;;;5071288;28;20670;-62
2023/11/11 07:48:46;;;;;;;3.90;1.60;;;10.00;99.90;;;;;;5071498;28;20222;-62
2023/11/11 07:51:14;;;;;;;3.33;1.50;;;10.00;99.90;;;;;;5070912;28;20229;-62
2023/11/11 07:53:41;;;;;;;4.30;1.50;;;10.10;99.90;;;;;;5071071;28;20252;-62
2023/11/11 07:56:08;;;;;;;3.43;1.60;;;10.10;99.90;;;;;;5070979;28;20208;-61
2023/11/11 07:58:35;;;;;;;2.33;1.50;;;10.20;99.90;;;;;;5071254;28;20212;-61
2023/11/11 08:01:03;;;;;;;2.57;1.40;;;10.20;99.90;;;;;;5071039;28;20270;-61
2023/11/11 08:03:32;;;;;;;3.40;2.30;;;10.10;99.90;;;;;;5070798;28;20734;-61
2023/11/11 08:05:59;;;;;;;3.93;1.50;;;10.20;99.90;;;;;;5070748;28;20577;-62
2023/11/11 08:08:28;;;;;;;2.90;1.40;;;10.30;99.90;;;;;;5070796;28;20201;-62
2023/11/11 08:10:55;;;;;;;2.80;1.67;;;10.30;99.90;;;;;;5071346;28;20252;-62
2023/11/11 08:13:22;;;;;;;3.77;1.70;;;10.30;99.90;;;;;;5071163;28;20215;-62
2023/11/11 08:15:49;;;;;;;1.43;1.10;;;10.30;99.90;;;;;;5070772;28;20251;-62
2023/11/11 08:18:15;;;;;;;2.80;1.50;;;10.30;99.90;;;;;;5071363;28;20250;-62
2023/11/11 08:20:43;;;;;;;3.40;1.63;;;10.40;99.90;;;;;;5070650;28;20226;-61
2023/11/11 08:23:10;;;;;;;6.63;3.23;;;10.40;99.90;;;;;;5070647;28;20631;-62
2023/11/11 08:25:38;;;;;;;2.20;1.60;;;10.30;99.90;;;;;;5070947;28;20219;-62
2023/11/11 08:28:05;;;;;;;1.93;1.57;;;10.20;99.90;;;;;;5070882;28;20698;-62
2023/11/11 08:30:33;;;;;;;3.23;1.73;;;10.10;99.90;;;;;;5070644;28;20221;-62
2023/11/11 08:33:02;;;;;;;3.73;1.93;;;10.10;99.90;;;;;;5070507;28;20647;-62
2023/11/11 08:35:29;;;;;;;2.60;1.67;;;10.10;99.90;;;;;;5070811;28;20406;-60
2023/11/11 08:38:00;;;;;;;3.10;1.90;;;10.10;99.90;;;;;;5070804;28;20212;-60
2023/11/11 08:40:26;;;;;;;5.00;2.20;;;10.10;99.90;;;;;;5070695;28;20225;-62
2023/11/11 08:42:54;;;;;;;3.40;1.90;;;10.10;99.90;;;;;;5070202;28;20201;-61
2023/11/11 08:45:21;;;;;;;6.00;2.40;;;10.20;99.90;;;;;;5054276;28;20212;-66
2023/11/11 08:47:48;;;;;;;2.13;1.40;;;10.30;99.90;;;;;;5071304;28;20216;-62
2023/11/11 08:50:15;;;;;;;2.50;1.67;;;10.40;99.90;;;;;;5073996;28;20271;-62
2023/11/11 08:52:42;;;;;;;3.40;1.60;;;10.60;99.90;;;;;;5074593;28;20229;-60
2023/11/11 08:55:09;;;;;;;4.90;1.67;;;10.60;99.90;;;;;;5074723;28;20213;-62
2023/11/11 08:57:36;;;;;;;2.57;1.70;;;10.60;99.90;;;;;;5074898;28;20579;-61
2023/11/11 09:00:09;;;;;;;3.03;1.43;;;10.60;99.90;;;;;;5074187;28;20307;-60
2023/11/11 09:02:36;;;;;;;2.33;1.53;;;10.60;99.90;;;;;;5074224;28;20219;-60
2023/11/11 09:05:04;;;;;;;2.57;1.50;;;10.60;99.90;;;;;;5075357;28;20209;-60
2023/11/11 09:07:31;;;;;;;3.00;1.83;;;10.60;99.90;;;;;;5075138;28;20701;-60
2023/11/11 09:09:58;;;;;;;4.13;1.50;;;10.70;99.90;;;;;;5074831;28;20710;-60
2023/11/11 09:12:25;;;;;;;2.57;1.50;;;10.70;99.90;;;;;;5074958;28;20204;-61
2023/11/11 09:14:52;;;;;;;3.67;1.50;;;10.60;99.90;;;;;;5074226;28;20209;-60
2023/11/11 09:17:21;;;;;;;2.53;1.70;;;10.70;99.90;;;;;;5074043;28;20562;-60
2023/11/11 09:19:48;;;;;;;3.33;1.67;;;10.70;99.90;;;;;;5074132;28;20237;-61
2023/11/11 09:22:15;;;;;;;2.77;1.53;;;10.80;99.90;;;;;;5074564;28;20586;-61
2023/11/11 09:24:42;;;;;;;4.10;1.83;;;10.90;99.90;;;;;;5074134;28;20553;-61
2023/11/11 09:27:08;;;;;;;2.70;1.73;;;10.90;99.90;;;;;;5074090;28;20212;-60
2023/11/11 09:29:35;;;;;;;4.33;2.03;;;10.90;99.90;;;;;;5073627;28;20205;-60
2023/11/11 09:32:02;;;;;;;3.77;1.63;;;10.90;99.90;;;;;;5073320;28;20221;-61
2023/11/11 09:34:30;;;;;;;3.70;2.10;;;10.90;99.90;;;;;;5073508;28;20714;-60
2023/11/11 09:36:56;;;;;;;3.10;1.70;;;11.00;99.90;;;;;;5073569;28;20205;-60
2023/11/11 09:39:23;;;;;;;4.57;2.20;;;10.90;99.90;;;;;;5073670;28;20234;-60
2023/11/11 09:41:51;;;;;;;2.40;1.60;;;11.00;99.90;;;;;;5074175;28;20290;-60
2023/11/11 09:44:18;;;;;;;5.00;1.87;;;11.00;99.90;;;;;;5073707;28;20217;-60
2023/11/11 09:46:53;;;;;;;3.77;1.60;;;10.90;99.90;;;;;;5073772;28;20212;-60
2023/11/11 09:49:20;;;;;;;5.40;2.20;;;11.00;99.90;;;;;;5073645;28;20204;-61
2023/11/11 09:51:49;;;;;;;5.43;2.50;;;11.10;99.90;;;;;;5073167;28;20260;-62
2023/11/11 09:54:16;;;;;;;3.20;1.75;;;10.90;99.90;;;;;;5068945;28;20442;-63
2023/11/11 09:56:44;;;;;;;5.00;1.70;;;11.00;99.90;;;;;;5052497;28;20617;-64
2023/11/11 09:59:12;;;;;;;1.50;1.33;;;11.00;99.90;;;;;;5052596;28;20836;-62
2023/11/11 10:01:40;;;;;;;3.27;1.80;;;11.10;99.90;;;;;;5046005;28;20703;-61
2023/11/11 10:04:07;;;;;;;3.73;1.60;;;11.10;99.90;;;;;;5052570;28;20570;-59
2023/11/11 10:06:34;;;;;;;3.10;1.67;;;11.20;99.90;;;;;;5052815;28;20577;-59
2023/11/11 10:09:04;;;;;;;2.97;1.67;;;11.30;99.90;;;;;;5052746;28;20206;-60
2023/11/11 10:11:31;;;;;;;2.17;1.60;;;11.30;99.90;;;;;;5052555;28;20222;-59
2023/11/11 10:13:57;;;;;;;2.73;1.50;;;11.50;99.90;;;;;;5052272;28;20579;-59
2023/11/11 10:16:26;;;;;;;5.00;1.60;;;11.60;99.90;;;;;;5052375;28;20209;-60
2023/11/11 10:18:53;;;;;;;5.80;4.27;;;11.60;99.90;;;;;;5052603;28;20212;-59
2023/11/11 10:21:21;;;;;;;5.13;1.90;;;11.60;99.90;;;;;;5086856;22;20327;-58
2023/11/11 10:23:48;;;;;;;3.63;1.50;;;11.70;99.90;;;;;;5072031;28;20205;-59
2023/11/11 10:26:17;;;;;;;4.33;1.90;;;11.60;99.90;;;;;;5072458;28;20222;-60
2023/11/11 10:28:48;;;;;;;3.43;1.50;;;11.60;99.90;;;;;;5072460;28;20209;-60
2023/11/11 10:31:15;;;;;;;1.40;1.17;;;11.60;99.90;;;;;;5061586;28;20724;-60
2023/11/11 10:33:42;;;;;;;2.10;1.30;;;11.80;99.90;;;;;;5060392;28;20208;-62
2023/11/11 10:36:10;;;;;;;3.17;1.30;;;11.80;99.90;;;;;;5051964;28;20237;-59
2023/11/11 10:38:38;;;;;;;4.63;1.87;;;11.80;99.90;;;;;;5057215;28;20256;-58
2023/11/11 10:41:05;;;;;;;2.43;1.80;;;11.80;99.90;;;;;;5054642;28;20720;-59
2023/11/11 10:43:33;;;;;;;2.70;1.43;;;11.90;99.90;;;;;;5056465;28;20212;-61
2023/11/11 10:46:01;;;;;;;2.40;1.47;;;11.90;99.90;;;;;;5052034;28;20667;-59
2023/11/11 10:48:28;;;;;;;1.90;1.30;;;12.00;99.90;;;;;;5052415;28;20201;-58
2023/11/11 10:50:55;;;;;;;2.13;1.00;;;12.00;99.90;;;;;;5050684;28;20244;-61
2023/11/11 10:53:27;;;;;;;2.13;1.63;;;12.00;99.90;;;;;;5062136;28;20213;-61
2023/11/11 10:55:55;;;;;;;2.43;1.50;;;11.80;99.90;;;;;;5055918;28;20209;-58
2023/11/11 10:58:22;;;;;;;3.80;1.20;;;11.80;99.90;;;;;;5052024;28;20659;-57
2023/11/11 11:00:51;;;;;;;3.67;1.60;;;11.80;99.90;;;;;;5060355;28;20228;-58
2023/11/11 11:03:20;;;;;;;3.03;1.17;;;11.90;99.90;;;;;;5051436;28;20220;-57
2023/11/11 11:05:54;;;;;;;4.67;1.60;;;11.90;99.90;;;;;;5051987;28;20334;-58
2023/11/11 11:08:38;;;;;;;1.73;1.30;;;12.00;99.90;;;;;;5051728;28;20201;-56
2023/11/11 11:11:18;;;;;;;4.90;1.60;;;12.10;99.90;;;;;;5051536;28;20687;-60
2023/11/11 11:13:48;;;;;;;2.97;1.30;;;12.20;99.90;;;;;;5051422;28;20216;-60
2023/11/11 11:16:27;;;;;;;1.63;1.07;;;12.30;99.90;;;;;;5051454;28;20225;-60
2023/11/11 11:18:55;;;;;;;1.60;1.13;;;12.30;99.90;;;;;;5058946;28;20208;-57
2023/11/11 11:21:22;;;;;;;2.87;1.30;;;12.40;99.90;;;;;;5060120;28;20233;-59
2023/11/11 11:23:50;;;;;;;1.50;1.10;;;12.30;99.90;;;;;;5057797;28;20217;-60
2023/11/11 11:26:26;;;;;;;1.43;1.03;;;12.20;99.90;;;;;;5053734;28;20213;-58
2023/11/11 11:29:11;;;;;;;3.30;1.30;;;12.00;99.90;;;;;;5055691;28;20270;-65
2023/11/11 11:32:07;;;;;;;2.70;1.33;;;11.80;99.90;;;;;;5044850;28;20249;-61
2023/11/11 11:34:34;;;;;;;2.53;1.60;;;11.60;99.90;;;;;;5044118;28;20225;-60
2023/11/11 11:37:02;;;;;;;2.40;0.90;;;11.60;99.90;;;;;;5051121;28;20210;-60
2023/11/11 11:39:35;;;;;;;1.47;0.97;;;11.70;99.90;;;;;;5050971;28;20663;-60
2023/11/11 11:42:11;;;;;;;3.17;1.17;;;11.70;99.90;;;;;;5050645;28;20269;-60
2023/11/11 11:44:38;;;;;;;2.60;1.37;;;12.00;99.90;;;;;;5058390;28;20292;-62
2023/11/11 11:47:05;;;;;;;3.00;1.30;;;12.20;99.90;;;;;;5051023;28;20210;-59
2023/11/11 11:49:34;;;;;;;5.17;1.30;;;12.20;99.90;;;;;;5059282;28;20205;-57
2023/11/11 11:52:01;;;;;;;2.90;1.40;;;12.30;99.90;;;;;;5051068;28;20316;-58
2023/11/11 11:54:27;;;;;;;2.77;1.63;;;12.30;99.90;;;;;;5050716;28;20205;-57
2023/11/11 11:56:54;;;;;;;3.23;1.47;;;12.40;99.90;;;;;;5051100;28;20209;-56
2023/11/11 11:59:21;;;;;;;2.27;1.30;;;12.30;99.90;;;;;;5050771;28;20213;-56
2023/11/11 12:01:48;;;;;;;1.90;0.90;;;12.30;99.90;;;;;;5057266;28;20216;-57
2023/11/11 12:04:15;;;;;;;2.53;1.10;;;12.10;99.90;;;;;;5060243;28;20217;-60
2023/11/11 12:06:45;;;;;;;3.77;2.23;;;11.90;99.90;;;;;;5055993;28;20207;-58
2023/11/11 12:09:17;;;;;;;3.40;1.77;;;11.80;99.90;;;;;;5052353;28;20217;-56
2023/11/11 12:11:44;;;;;;;3.53;1.80;;;11.90;99.90;;;;;;5050635;28;20229;-56
2023/11/11 12:14:13;;;;;;;3.20;1.40;;;12.00;99.90;;;;;;5050403;28;20634;-56
2023/11/11 12:16:41;;;;;;;1.83;1.10;;;12.00;99.90;;;;;;5058682;28;20217;-56
2023/11/11 12:19:12;;;;;;;5.77;3.37;;;12.00;99.90;;;;;;5050475;28;20210;-55
2023/11/11 12:21:42;;;;;;;2.33;1.70;;;11.90;99.90;;;;;;5050659;28;20268;-56
2023/11/11 12:24:12;;;;;;;1.80;1.50;;;11.90;99.90;;;;;;5053212;28;20260;-56
2023/11/11 12:26:39;;;;;;;3.37;2.27;;;12.00;99.90;;;;;;5054592;28;20210;-56
2023/11/11 12:29:06;;;;;;;3.70;1.63;;;12.00;99.90;;;;;;5054218;28;20225;-54
2023/11/11 12:31:32;;;;;;;2.00;1.00;;;12.00;99.90;;;;;;5054587;28;20584;-56
2023/11/11 12:33:59;;;;;;;2.33;1.30;;;12.00;99.90;;;;;;5063131;28;20216;-56
2023/11/11 12:36:26;;;;;;;1.67;1.10;;;12.00;99.90;;;;;;5063485;28;20214;-56
2023/11/11 12:39:04;;;;;;;2.37;1.00;;;11.80;99.90;;;;;;5055285;28;20694;-57
2023/11/11 12:41:34;;;;;;;2.47;1.33;;;11.70;99.90;;;;;;5054161;28;20217;-55
2023/11/11 12:44:02;;;;;;;2.20;1.30;;;11.60;99.90;;;;;;5054590;28;20241;-57
2023/11/11 12:46:29;;;;;;;2.00;1.40;;;11.50;99.90;;;;;;5054265;28;20202;-56
2023/11/11 12:48:56;;;;;;;3.47;1.80;;;11.40;99.90;;;;;;5061553;28;20587;-56
2023/11/11 12:51:30;;;;;;;2.47;0.97;;;11.30;99.90;;;;;;5057152;28;20733;-56
2023/11/11 12:53:57;;;;;;;1.90;1.00;;;11.30;99.90;;;;;;5057604;28;20666;-58